createdAt,value
2023-03-11T00:00:25.463Z,42.95
2023-03-11T00:02:56.081Z,42.69
2023-03-11T00:05:25.850Z,42.92
2023-03-11T00:07:54.538Z,42.55
2023-03-11T00:10:29.718Z,42.57
2023-03-11T00:13:01.566Z,42.84
2023-03-11T00:15:30.141Z,43.44
2023-03-11T00:17:58.746Z,42.98
2023-03-11T00:20:29.335Z,43.12
2023-03-11T00:22:57.989Z,43.16
2023-03-11T00:25:29.039Z,43.17
2023-03-11T00:27:57.504Z,43.57
2023-03-11T00:30:29.208Z,43.55
2023-03-11T00:32:59.375Z,43.38
2023-03-11T00:35:29.799Z,43.53
2023-03-11T00:37:59.900Z,43.82
2023-03-11T00:40:31.805Z,43.45
2023-03-11T00:43:00.275Z,43.36
2023-03-11T00:45:29.425Z,43.42
2023-03-11T00:47:57.701Z,43.70
2023-03-11T00:50:28.766Z,43.77
2023-03-11T00:52:56.955Z,44.21
2023-03-11T00:55:26.812Z,43.70
2023-03-11T00:57:57.583Z,44.42
2023-03-11T01:00:26.293Z,44.48
2023-03-11T01:02:55.498Z,44.23
2023-03-11T01:05:25.543Z,44.49
2023-03-11T01:07:53.481Z,44.87
2023-03-11T01:10:21.928Z,44.47
2023-03-11T01:12:50.340Z,44.49
2023-03-11T01:15:24.813Z,44.19
2023-03-11T01:17:52.866Z,44.08
2023-03-11T01:20:21.719Z,44.46
2023-03-11T01:22:50.134Z,44.95
2023-03-11T01:25:20.334Z,44.75
2023-03-11T01:27:48.361Z,44.16
2023-03-11T01:30:18.440Z,44.80
2023-03-11T01:32:48.256Z,44.37
2023-03-11T01:35:18.540Z,44.51
2023-03-11T01:37:46.945Z,44.53
2023-03-11T01:40:19.808Z,44.30
2023-03-11T01:42:48.084Z,44.43
2023-03-11T01:45:37.443Z,43.97
2023-03-11T01:48:07.072Z,44.04
2023-03-11T01:50:39.721Z,44.40
2023-03-11T01:53:08.522Z,44.15
2023-03-11T01:55:36.915Z,44.35
2023-03-11T01:58:08.725Z,44.45
2023-03-11T02:00:45.844Z,44.34
2023-03-11T02:03:20.015Z,44.39
2023-03-11T02:05:48.911Z,44.81
2023-03-11T02:08:16.896Z,44.37
2023-03-11T02:10:45.910Z,44.35
2023-03-11T02:13:14.107Z,44.18
2023-03-11T02:15:42.386Z,44.19
2023-03-11T02:18:14.687Z,44.47
2023-03-11T02:20:50.568Z,44.12
2023-03-11T02:23:26.134Z,44.55
2023-03-11T02:26:01.495Z,44.60
2023-03-11T02:28:32.392Z,44.14
2023-03-11T02:31:00.499Z,44.08
2023-03-11T02:33:32.254Z,44.42
2023-03-11T02:36:00.347Z,44.34
2023-03-11T02:38:28.292Z,44.39
2023-03-11T02:40:57.816Z,44.58
2023-03-11T02:43:33.568Z,44.91
2023-03-11T02:46:02.562Z,44.71
2023-03-11T02:48:31.820Z,44.86
2023-03-11T02:51:00.319Z,45.25
2023-03-11T02:53:31.767Z,45.13
2023-03-11T02:55:59.684Z,44.98
2023-03-11T02:58:27.627Z,45.28
2023-03-11T03:00:56.975Z,45.20
2023-03-11T03:03:25.559Z,45.91
2023-03-11T03:05:53.538Z,46.56
2023-03-11T03:08:21.506Z,46.36
2023-03-11T03:10:49.509Z,46.48
2023-03-11T03:13:17.632Z,46.93
2023-03-11T03:15:48.563Z,47.06
2023-03-11T03:18:17.922Z,47.32
2023-03-11T03:20:48.791Z,47.56
2023-03-11T03:23:16.706Z,47.47
2023-03-11T03:25:45.502Z,48.09
2023-03-11T03:28:13.800Z,47.52
2023-03-11T03:30:42.458Z,47.94
2023-03-11T03:33:10.900Z,48.76
2023-03-11T03:35:44.343Z,48.44
2023-03-11T03:38:12.866Z,48.72
2023-03-11T03:40:41.277Z,49.10
2023-03-11T03:43:09.231Z,49.35
2023-03-11T03:45:37.252Z,49.35
2023-03-11T03:48:05.793Z,50.21
2023-03-11T03:50:36.562Z,50.22
2023-03-11T03:53:06.506Z,50.60
2023-03-11T03:55:34.526Z,49.98
2023-03-11T03:58:02.495Z,49.88
2023-03-11T04:00:30.506Z,50.29
2023-03-11T04:02:58.531Z,50.82
2023-03-11T04:05:26.908Z,52.06
2023-03-11T04:07:54.951Z,52.71
2023-03-11T04:10:24.289Z,53.06
2023-03-11T04:12:52.276Z,53.33
2023-03-11T04:15:20.402Z,54.34
2023-03-11T04:17:48.351Z,54.16
2023-03-11T04:20:16.330Z,54.61
2023-03-11T04:22:44.326Z,54.61
2023-03-11T04:25:14.602Z,54.65
2023-03-11T04:27:46.144Z,54.53
2023-03-11T04:30:14.822Z,54.37
2023-03-11T04:32:43.604Z,54.93
2023-03-11T04:35:11.666Z,54.48
2023-03-11T04:37:39.656Z,54.56
2023-03-11T04:40:09.979Z,55.18
2023-03-11T04:42:39.115Z,55.20
2023-03-11T04:45:11.043Z,54.77
2023-03-11T04:47:39.004Z,55.32
2023-03-11T04:50:07.366Z,55.63
2023-03-11T04:52:35.324Z,55.89
2023-03-11T04:55:03.414Z,56.48
2023-03-11T04:57:33.736Z,56.17
2023-03-11T05:00:01.830Z,56.60
2023-03-11T05:02:31.161Z,56.35
2023-03-11T05:04:59.182Z,56.78
2023-03-11T05:07:27.244Z,56.92
2023-03-11T05:09:55.228Z,57.30
2023-03-11T05:12:23.275Z,57.42
2023-03-11T05:14:51.256Z,57.92
2023-03-11T05:17:19.715Z,57.78
2023-03-11T05:19:49.726Z,57.96
2023-03-11T05:22:17.687Z,58.29
2023-03-11T05:24:47.006Z,58.74
2023-03-11T05:27:17.923Z,59.30
2023-03-11T05:29:45.964Z,59.83
2023-03-11T05:32:14.054Z,59.92
2023-03-11T05:34:42.430Z,60.81
2023-03-11T05:37:11.829Z,60.14
2023-03-11T05:39:39.878Z,60.15
2023-03-11T05:42:08.412Z,59.63
2023-03-11T05:44:36.825Z,59.50
2023-03-11T05:47:04.813Z,59.63
2023-03-11T05:49:32.988Z,60.09
2023-03-11T05:52:00.970Z,59.99
2023-03-11T05:54:32.401Z,59.74
2023-03-11T05:57:03.421Z,59.81
2023-03-11T05:59:35.481Z,60.18
2023-03-11T06:02:03.616Z,60.70
2023-03-11T06:04:37.325Z,60.82
2023-03-11T06:07:06.077Z,60.55
2023-03-11T06:09:38.579Z,60.50
2023-03-11T06:12:07.285Z,60.42
2023-03-11T06:14:35.233Z,60.14
2023-03-11T06:17:04.101Z,59.90
2023-03-11T06:19:32.124Z,60.49
2023-03-11T06:22:00.146Z,60.56
2023-03-11T06:24:30.800Z,60.31
2023-03-11T06:27:00.124Z,59.94
2023-03-11T06:29:29.215Z,59.56
2023-03-11T06:31:57.425Z,60.05
2023-03-11T06:34:25.394Z,59.94
2023-03-11T06:36:54.803Z,60.04
2023-03-11T06:39:22.813Z,60.62
2023-03-11T06:41:50.724Z,61.23
2023-03-11T06:44:20.143Z,60.82
2023-03-11T06:46:48.137Z,60.12
2023-03-11T06:49:16.170Z,60.72
2023-03-11T06:51:44.141Z,60.44
2023-03-11T06:54:14.953Z,61.30
2023-03-11T06:56:42.872Z,61.78
2023-03-11T06:59:10.980Z,62.51
2023-03-11T07:01:40.316Z,62.81
2023-03-11T07:04:08.289Z,64.82
2023-03-11T07:06:36.280Z,64.36
2023-03-11T07:09:04.407Z,64.71
2023-03-11T07:11:32.525Z,64.88
2023-03-11T07:14:00.562Z,64.47
2023-03-11T07:16:32.205Z,64.75
2023-03-11T07:19:03.767Z,64.33
2023-03-11T07:21:34.446Z,64.64
2023-03-11T07:24:03.945Z,65.15
2023-03-11T07:26:33.670Z,65.40
2023-03-11T07:29:02.515Z,65.07
2023-03-11T07:31:32.510Z,64.75
2023-03-11T07:34:02.142Z,65.03
2023-03-11T07:36:31.700Z,64.81
2023-03-11T07:39:04.233Z,65.02
2023-03-11T07:41:34.160Z,66.63
2023-03-11T07:44:03.837Z,65.72
2023-03-11T07:46:32.947Z,66.64
2023-03-11T07:49:03.679Z,66.79
2023-03-11T07:51:35.469Z,67.58
2023-03-11T07:54:03.940Z,66.71
2023-03-11T07:56:34.667Z,66.40
2023-03-11T07:59:04.067Z,66.69
2023-03-11T08:01:36.372Z,68.21
2023-03-11T08:04:06.437Z,67.34
2023-03-11T08:06:37.284Z,66.70
2023-03-11T08:09:10.346Z,67.34
2023-03-11T08:11:41.309Z,67.58
2023-03-11T08:14:09.671Z,67.74
2023-03-11T08:16:37.649Z,68.37
2023-03-11T08:19:05.841Z,68.98
2023-03-11T08:21:35.362Z,69.43
2023-03-11T08:24:06.210Z,69.65
2023-03-11T08:26:35.084Z,70.07
2023-03-11T08:29:03.190Z,70.26
2023-03-11T08:31:36.298Z,70.24
2023-03-11T08:34:07.131Z,70.75
2023-03-11T08:36:36.582Z,70.91
2023-03-11T08:39:05.490Z,72.82
2023-03-11T08:41:39.712Z,72.99
2023-03-11T08:44:08.061Z,74.66
2023-03-11T08:46:38.185Z,74.63
2023-03-11T08:49:07.485Z,75.97
2023-03-11T08:51:37.156Z,75.29
2023-03-11T08:54:05.752Z,74.31
2023-03-11T08:56:33.876Z,74.12
2023-03-11T08:59:01.871Z,73.67
2023-03-11T09:01:30.558Z,73.52
2023-03-11T09:03:58.727Z,74.01
2023-03-11T09:06:27.067Z,74.11
2023-03-11T09:08:56.453Z,73.44
2023-03-11T09:11:24.599Z,73.67
2023-03-11T09:13:55.297Z,73.17
2023-03-11T09:16:24.761Z,72.85
2023-03-11T09:18:52.776Z,72.19
2023-03-11T09:21:21.318Z,71.97
2023-03-11T09:23:49.720Z,71.81
2023-03-11T09:26:19.025Z,71.74
2023-03-11T09:28:49.361Z,71.78
2023-03-11T09:31:17.881Z,71.89
2023-03-11T09:33:46.597Z,73.53
2023-03-11T09:36:15.881Z,73.26
2023-03-11T09:38:44.474Z,73.30
2023-03-11T09:41:24.351Z,73.20
2023-03-11T09:44:02.468Z,73.22
2023-03-11T09:47:12.623Z,73.36
2023-03-11T09:49:56.240Z,72.24
2023-03-11T09:52:30.553Z,72.51
2023-03-11T09:55:00.991Z,72.90
2023-03-11T09:57:35.130Z,73.22
2023-03-11T10:00:05.560Z,72.83
2023-03-11T10:02:37.020Z,72.00
2023-03-11T10:05:10.941Z,72.27
2023-03-11T10:07:44.937Z,71.26
2023-03-11T10:10:15.312Z,71.21
2023-03-11T10:12:57.280Z,71.49
2023-03-11T10:15:39.411Z,71.31
2023-03-11T10:18:27.489Z,71.17
2023-03-11T10:21:06.404Z,70.30
2023-03-11T10:23:46.712Z,69.91
2023-03-11T10:26:20.220Z,69.50
2023-03-11T10:28:58.309Z,70.13
2023-03-11T10:31:28.980Z,70.01
2023-03-11T10:34:01.671Z,70.30
2023-03-11T10:36:39.195Z,71.42
2023-03-11T10:39:07.896Z,71.07
2023-03-11T10:41:45.043Z,70.26
2023-03-11T10:44:16.953Z,70.58
2023-03-11T10:46:45.210Z,70.57
2023-03-11T10:49:15.503Z,70.99
2023-03-11T10:51:47.988Z,71.13
2023-03-11T10:54:28.110Z,71.19
2023-03-11T10:56:58.269Z,70.51
2023-03-11T10:59:30.719Z,71.06
2023-03-11T11:02:00.567Z,71.35
2023-03-11T11:04:37.157Z,71.88
2023-03-11T11:07:30.231Z,72.17
2023-03-11T11:10:18.580Z,72.22
2023-03-11T11:12:57.685Z,71.94
2023-03-11T11:15:32.462Z,71.37
2023-03-11T11:18:03.085Z,71.76
2023-03-11T11:20:32.371Z,71.45
2023-03-11T11:23:02.776Z,71.02
2023-03-11T11:25:33.779Z,70.82
2023-03-11T11:28:16.122Z,70.32
2023-03-11T11:30:56.395Z,70.80
2023-03-11T11:33:28.110Z,70.15
2023-03-11T11:35:58.334Z,69.58
2023-03-11T11:38:29.404Z,70.90
2023-03-11T11:41:00.711Z,70.67
2023-03-11T11:43:45.237Z,70.74
2023-03-11T11:46:22.396Z,69.97
2023-03-11T11:49:01.116Z,69.55
2023-03-11T11:51:34.520Z,69.36
2023-03-11T11:54:10.961Z,69.46
2023-03-11T11:56:40.646Z,69.17
2023-03-11T11:59:17.728Z,69.84
2023-03-11T12:01:59.430Z,69.33
2023-03-11T12:04:44.735Z,69.71
2023-03-11T12:07:24.305Z,69.30
2023-03-11T12:10:07.276Z,68.61
2023-03-11T12:12:55.474Z,69.19
2023-03-11T12:15:29.282Z,70.16
2023-03-11T12:18:02.763Z,69.57
2023-03-11T12:20:38.463Z,69.18
2023-03-11T12:23:24.201Z,68.55
2023-03-11T12:26:05.861Z,67.68
2023-03-11T12:28:44.605Z,67.60
2023-03-11T12:31:14.330Z,67.63
2023-03-11T12:33:46.515Z,67.46
2023-03-11T12:36:26.817Z,67.45
2023-03-11T12:38:55.450Z,67.99
2023-03-11T12:41:33.702Z,67.37
2023-03-11T12:44:06.911Z,67.43
2023-03-11T12:47:11.583Z,67.66
2023-03-11T12:49:43.286Z,68.70
2023-03-11T12:52:30.028Z,69.01
2023-03-11T12:55:30.777Z,68.82
2023-03-11T12:58:05.889Z,69.23
2023-03-11T13:00:51.017Z,69.06
2023-03-11T13:03:48.913Z,69.11
2023-03-11T13:06:39.956Z,68.40
2023-03-11T13:09:15.717Z,67.72
2023-03-11T13:11:47.095Z,67.80
2023-03-11T13:14:33.020Z,68.70
2023-03-11T13:17:24.874Z,68.85
2023-03-11T13:19:55.319Z,69.06
2023-03-11T13:23:13.741Z,70.90
2023-03-11T13:25:44.807Z,71.64
2023-03-11T13:28:58.102Z,70.80
2023-03-11T13:31:42.977Z,70.11
2023-03-11T13:34:17.480Z,69.54
2023-03-11T13:36:58.707Z,69.15
2023-03-11T13:39:41.352Z,68.58
2023-03-11T13:42:23.573Z,68.61
2023-03-11T13:44:52.268Z,67.92
2023-03-11T13:47:21.820Z,66.72
2023-03-11T13:49:55.046Z,64.88
2023-03-11T13:52:28.037Z,64.77
2023-03-11T13:55:02.438Z,64.36
2023-03-11T13:57:34.904Z,64.33
2023-03-11T14:00:16.814Z,62.88
2023-03-11T14:02:51.047Z,62.89
2023-03-11T14:05:22.161Z,61.93
2023-03-11T14:07:50.186Z,62.49
2023-03-11T14:10:23.262Z,62.44
2023-03-11T14:12:53.033Z,61.83
2023-03-11T14:15:24.423Z,61.92
2023-03-11T14:17:53.680Z,63.13
2023-03-11T14:20:25.449Z,63.99
2023-03-11T14:22:55.462Z,64.98
2023-03-11T14:25:26.505Z,66.26
2023-03-11T14:27:58.748Z,66.58
2023-03-11T14:30:28.608Z,67.89
2023-03-11T14:33:01.723Z,68.14
2023-03-11T14:35:30.893Z,68.79
2023-03-11T14:37:59.271Z,68.49
2023-03-11T14:40:31.240Z,69.17
2023-03-11T14:43:03.344Z,69.66
2023-03-11T14:45:34.108Z,69.65
2023-03-11T14:48:08.260Z,70.18
2023-03-11T14:50:37.089Z,69.54
2023-03-11T14:53:10.040Z,69.33
2023-03-11T14:55:41.234Z,69.20
2023-03-11T14:58:16.451Z,68.70
2023-03-11T15:00:51.283Z,69.84
2023-03-11T15:03:25.100Z,69.47
2023-03-11T15:05:56.111Z,70.43
2023-03-11T15:08:27.442Z,69.97
2023-03-11T15:11:19.204Z,70.20
2023-03-11T15:13:51.262Z,69.92
2023-03-11T15:16:34.183Z,71.23
2023-03-11T15:19:21.753Z,71.33
2023-03-11T15:21:54.473Z,71.05
2023-03-11T15:24:27.232Z,71.69
2023-03-11T15:26:58.180Z,71.33
2023-03-11T15:29:28.437Z,71.63
2023-03-11T15:32:00.279Z,72.28
2023-03-11T15:34:33.446Z,72.94
2023-03-11T15:37:21.424Z,73.63
2023-03-11T15:39:52.352Z,74.17
2023-03-11T15:42:23.006Z,74.04
2023-03-11T15:45:10.386Z,74.28
2023-03-11T15:47:38.432Z,74.39
2023-03-11T15:50:24.709Z,74.18
2023-03-11T15:52:54.580Z,74.78
2023-03-11T15:55:26.984Z,74.93
2023-03-11T15:58:01.846Z,74.44
2023-03-11T16:00:31.168Z,74.97
2023-03-11T16:02:59.320Z,75.19
2023-03-11T16:05:27.410Z,75.89
2023-03-11T16:07:55.704Z,75.95
2023-03-11T16:10:25.717Z,75.95
2023-03-11T16:12:53.788Z,76.96
2023-03-11T16:15:28.581Z,76.35
2023-03-11T16:18:00.277Z,75.85
2023-03-11T16:20:32.520Z,75.24
2023-03-11T16:23:01.748Z,74.91
2023-03-11T16:25:34.565Z,75.06
2023-03-11T16:28:03.147Z,75.60
2023-03-11T16:30:33.066Z,75.27
2023-03-11T16:33:04.795Z,74.90
2023-03-11T16:35:33.494Z,74.49
2023-03-11T16:38:01.654Z,75.06
2023-03-11T16:40:30.293Z,74.34
2023-03-11T16:43:01.890Z,75.19
2023-03-11T16:45:30.036Z,75.05
2023-03-11T16:47:58.102Z,75.23
2023-03-11T16:50:27.644Z,76.39
2023-03-11T16:52:57.268Z,76.17
2023-03-11T16:55:27.059Z,75.48
2023-03-11T16:57:56.008Z,75.31
2023-03-11T17:00:24.941Z,75.46
2023-03-11T17:02:53.411Z,75.52
2023-03-11T17:05:21.727Z,76.07
2023-03-11T17:07:54.247Z,75.59
2023-03-11T17:10:24.540Z,75.15
2023-03-11T17:12:52.563Z,75.20
2023-03-11T17:15:20.674Z,75.57
2023-03-11T17:17:48.607Z,74.98
2023-03-11T17:20:17.049Z,75.66
2023-03-11T17:22:45.021Z,75.34
2023-03-11T17:25:14.711Z,75.56
2023-03-11T17:27:42.720Z,75.79
2023-03-11T17:30:14.909Z,75.67
2023-03-11T17:32:44.325Z,75.67
2023-03-11T17:35:12.576Z,75.59
2023-03-11T17:37:40.560Z,75.05
2023-03-11T17:40:10.063Z,75.72
2023-03-11T17:42:41.203Z,75.82
2023-03-11T17:45:10.564Z,75.62
2023-03-11T17:47:38.536Z,76.03
2023-03-11T17:50:07.326Z,75.82
2023-03-11T17:52:35.364Z,75.80
2023-03-11T17:55:03.400Z,76.15
2023-03-11T17:57:45.118Z,75.14
2023-03-11T18:00:16.579Z,75.00
2023-03-11T18:02:44.685Z,74.72
2023-03-11T18:05:12.825Z,75.53
2023-03-11T18:07:40.840Z,75.83
2023-03-11T18:10:10.506Z,76.04
2023-03-11T18:12:38.849Z,77.04
2023-03-11T18:15:14.481Z,76.36
2023-03-11T18:17:43.912Z,75.88
2023-03-11T18:20:14.083Z,75.23
2023-03-11T18:22:46.092Z,75.31
2023-03-11T18:25:14.668Z,75.19
2023-03-11T18:27:42.755Z,75.38
2023-03-11T18:30:12.452Z,75.45
2023-03-11T18:32:40.505Z,75.02
2023-03-11T18:35:10.978Z,74.81
2023-03-11T18:37:38.993Z,75.18
2023-03-11T18:40:08.438Z,74.90
2023-03-11T18:42:36.495Z,75.09
2023-03-11T18:45:05.294Z,74.93
2023-03-11T18:47:35.596Z,74.41
2023-03-11T18:50:03.686Z,75.13
2023-03-11T18:52:33.216Z,76.05
2023-03-11T18:55:01.334Z,75.94
2023-03-11T18:57:29.412Z,75.69
2023-03-11T18:59:57.448Z,75.23
2023-03-11T19:02:26.213Z,75.23
2023-03-11T19:04:54.346Z,74.42
2023-03-11T19:07:22.763Z,74.43
2023-03-11T19:09:52.145Z,75.00
2023-03-11T19:12:20.103Z,75.07
2023-03-11T19:14:48.250Z,75.43
2023-03-11T19:17:18.381Z,75.60
2023-03-11T19:19:46.633Z,75.39
2023-03-11T19:22:14.678Z,75.44
2023-03-11T19:24:42.699Z,75.44
2023-03-11T19:27:12.172Z,75.74
2023-03-11T19:29:40.346Z,75.13
2023-03-11T19:32:08.329Z,75.37
2023-03-11T19:34:36.385Z,75.91
2023-03-11T19:37:04.441Z,75.47
2023-03-11T19:39:32.568Z,75.46
2023-03-11T19:42:00.671Z,75.19
2023-03-11T19:44:30.056Z,75.40
2023-03-11T19:46:58.177Z,74.45
2023-03-11T19:49:26.197Z,74.70
2023-03-11T19:51:56.078Z,74.88
2023-03-11T19:54:24.212Z,74.80
2023-03-11T19:56:52.215Z,75.22
2023-03-11T19:59:20.195Z,75.43
2023-03-11T20:01:49.559Z,75.02
2023-03-11T20:04:17.738Z,74.63
2023-03-11T20:06:46.410Z,75.08
2023-03-11T20:09:16.092Z,75.66
2023-03-11T20:11:46.578Z,75.57
2023-03-11T20:14:15.535Z,75.21
2023-03-11T20:16:43.722Z,74.96
2023-03-11T20:19:13.748Z,75.15
2023-03-11T20:21:44.589Z,75.10
2023-03-11T20:24:13.933Z,75.24
2023-03-11T20:26:42.188Z,74.52
2023-03-11T20:29:10.439Z,74.59
2023-03-11T20:31:38.743Z,75.06
2023-03-11T20:34:07.098Z,74.11
2023-03-11T20:36:36.621Z,75.48
2023-03-11T20:39:07.379Z,75.30
2023-03-11T20:41:40.821Z,75.16
2023-03-11T20:44:10.390Z,75.23
2023-03-11T20:46:38.503Z,74.78
2023-03-11T20:49:06.862Z,76.27
2023-03-11T20:51:36.504Z,75.95
2023-03-11T20:54:04.749Z,75.64
2023-03-11T20:56:32.866Z,76.55
2023-03-11T20:59:01.084Z,76.52
2023-03-11T21:01:30.904Z,76.11
2023-03-11T21:04:00.842Z,76.53
2023-03-11T21:06:33.105Z,76.84
2023-03-11T21:09:05.739Z,76.26
2023-03-11T21:11:34.443Z,75.68
2023-03-11T21:14:02.996Z,75.31
2023-03-11T21:16:34.154Z,75.58
2023-03-11T21:19:05.509Z,75.03
2023-03-11T21:21:33.652Z,74.98
2023-03-11T21:24:03.276Z,75.02
2023-03-11T21:26:31.663Z,74.29
2023-03-11T21:28:59.739Z,74.42
2023-03-11T21:31:31.069Z,74.96
2023-03-11T21:34:01.260Z,75.29
2023-03-11T21:36:30.228Z,75.92
2023-03-11T21:38:58.384Z,75.49
2023-03-11T21:41:29.238Z,75.75
2023-03-11T21:43:58.248Z,74.87
2023-03-11T21:46:28.918Z,74.62
2023-03-11T21:48:57.444Z,74.48
2023-03-11T21:51:25.807Z,74.58
2023-03-11T21:53:54.004Z,74.95
2023-03-11T21:56:22.388Z,75.23
2023-03-11T21:58:53.883Z,76.24
2023-03-11T22:01:22.086Z,75.24
2023-03-11T22:03:50.375Z,74.75
2023-03-11T22:06:18.531Z,74.77
2023-03-11T22:08:46.808Z,75.40
2023-03-11T22:11:18.462Z,74.85
2023-03-11T22:13:47.004Z,74.51
2023-03-11T22:16:17.162Z,74.56
2023-03-11T22:18:46.715Z,75.14
2023-03-11T22:21:18.609Z,74.62
2023-03-11T22:23:46.729Z,75.02
2023-03-11T22:26:14.991Z,74.07
2023-03-11T22:28:43.044Z,74.65
2023-03-11T22:31:15.752Z,74.80
2023-03-11T22:33:45.357Z,75.19
2023-03-11T22:36:13.606Z,74.65
2023-03-11T22:38:44.184Z,75.42
2023-03-11T22:41:12.858Z,75.31
2023-03-11T22:43:41.473Z,75.48
2023-03-11T22:46:09.613Z,75.42
2023-03-11T22:48:37.937Z,75.19
2023-03-11T22:51:07.533Z,75.81
2023-03-11T22:53:35.834Z,75.43
2023-03-11T22:56:09.345Z,74.93
2023-03-11T22:58:37.422Z,74.71
2023-03-11T23:01:05.964Z,74.65
2023-03-11T23:03:35.537Z,74.50
2023-03-11T23:06:05.916Z,74.26
2023-03-11T23:08:36.174Z,74.39
2023-03-11T23:11:06.110Z,74.40
2023-03-11T23:13:35.847Z,74.72
2023-03-11T23:16:09.445Z,74.43
2023-03-11T23:18:37.907Z,74.02
2023-03-11T23:21:06.354Z,74.68
2023-03-11T23:23:35.863Z,74.72
2023-03-11T23:26:09.095Z,74.79
2023-03-11T23:28:37.288Z,74.58
2023-03-11T23:31:05.745Z,74.78
2023-03-11T23:33:33.904Z,74.35
2023-03-11T23:36:02.136Z,74.52
2023-03-11T23:38:30.521Z,74.35
2023-03-11T23:40:59.932Z,74.10
2023-03-11T23:43:28.327Z,73.54
2023-03-11T23:45:56.351Z,74.04
2023-03-11T23:48:24.340Z,74.36
2023-03-11T23:50:52.786Z,74.85
2023-03-11T23:53:23.189Z,75.07
2023-03-11T23:55:51.739Z,74.59
2023-03-11T23:58:21.927Z,74.30
